Time;durP1;ratioP1;P1;durP2;ratioP2;P2;SDS_P1;SDS_P2;PMS_P1;PMS_P2;Temp;Humidity;BMP_temperature;BMP_pressure;BME280_temperature;BME280_humidity;BME280_pressure;Samples;Min_cycle;Max_cycle;Signal;HPM_P1;HPM_P2
2021/10/23 00:00:07;;;;;;;0.10;0.10;;;9.50;99.90;;;;;;5049448;28;20724;-80
2021/10/23 00:02:33;;;;;;;0.10;0.10;;;9.40;99.90;;;;;;5061260;28;20243;-80
2021/10/23 00:04:58;;;;;;;0.10;0.10;;;9.40;99.90;;;;;;5056813;28;20636;-81
2021/10/23 00:07:24;;;;;;;0.10;0.10;;;9.40;99.90;;;;;;5058314;28;20200;-81
2021/10/23 00:09:50;;;;;;;0.10;0.10;;;9.40;99.90;;;;;;5048836;28;20586;-81
2021/10/23 00:12:15;;;;;;;4.40;0.97;;;9.40;99.90;;;;;;5066292;28;20209;-80
2021/10/23 00:14:41;;;;;;;0.07;0.07;;;9.40;99.90;;;;;;5059997;28;20269;-81
2021/10/23 00:17:07;;;;;;;0.40;0.40;;;9.50;99.90;;;;;;5064216;28;20242;-81
2021/10/23 00:19:32;;;;;;;1.60;0.63;;;9.50;99.90;;;;;;5059737;28;20189;-81
2021/10/23 00:21:58;;;;;;;0.10;0.10;;;9.50;99.90;;;;;;5060465;28;20211;-81
2021/10/23 00:24:24;;;;;;;0.10;0.10;;;9.50;99.90;;;;;;5059584;28;20262;-80
2021/10/23 00:26:49;;;;;;;0.27;0.27;;;9.60;99.90;;;;;;5067267;28;20200;-80
2021/10/23 00:29:15;;;;;;;0.20;0.17;;;9.60;99.90;;;;;;5058907;28;20556;-80
2021/10/23 00:31:40;;;;;;;0.10;0.10;;;9.50;99.90;;;;;;5063485;28;20185;-80
2021/10/23 00:34:06;;;;;;;0.10;0.10;;;9.60;99.90;;;;;;5062850;28;20211;-80
2021/10/23 00:36:32;;;;;;;0.10;0.10;;;9.50;99.90;;;;;;5054496;28;20581;-80
2021/10/23 00:38:58;;;;;;;0.23;0.23;;;9.50;99.90;;;;;;5053672;28;20200;-80
2021/10/23 00:41:23;;;;;;;0.10;0.10;;;9.40;99.90;;;;;;5050734;28;20185;-80
2021/10/23 00:43:49;;;;;;;0.13;0.10;;;9.40;99.90;;;;;;5067190;28;20268;-81
2021/10/23 00:46:15;;;;;;;0.10;0.10;;;9.30;99.90;;;;;;5057384;28;20209;-81
2021/10/23 00:48:42;;;;;;;0.20;0.20;;;9.20;99.90;;;;;;5055711;28;20222;-81
2021/10/23 00:51:10;;;;;;;0.10;0.10;;;9.20;99.90;;;;;;5060400;28;20177;-81
2021/10/23 00:53:37;;;;;;;0.00;0.00;;;9.20;99.90;;;;;;5058498;28;20193;-81
2021/10/23 00:56:04;;;;;;;0.07;0.07;;;9.20;99.90;;;;;;5058323;28;20299;-81
2021/10/23 00:58:30;;;;;;;0.10;0.10;;;9.10;99.90;;;;;;5059509;28;20204;-80
2021/10/23 01:00:55;;;;;;;0.10;0.10;;;9.10;99.90;;;;;;5046740;28;20184;-81
2021/10/23 01:03:21;;;;;;;0.10;0.10;;;9.00;99.90;;;;;;5062648;28;20189;-81
2021/10/23 01:05:47;;;;;;;0.23;0.23;;;9.00;99.90;;;;;;5067747;28;20178;-81
2021/10/23 01:08:13;;;;;;;0.10;0.10;;;8.90;99.90;;;;;;5061578;28;20204;-80
2021/10/23 01:10:40;;;;;;;0.17;0.17;;;8.90;99.90;;;;;;5060314;28;20189;-80
2021/10/23 01:13:05;;;;;;;0.10;0.10;;;8.80;99.90;;;;;;5061022;28;20186;-81
2021/10/23 01:15:32;;;;;;;0.00;0.00;;;8.80;99.90;;;;;;5066161;28;20185;-81
2021/10/23 01:18:01;;;;;;;0.10;0.10;;;8.70;99.90;;;;;;5053759;28;20221;-81
2021/10/23 01:20:27;;;;;;;0.10;0.10;;;8.60;99.90;;;;;;5059661;28;20181;-80
2021/10/23 01:22:53;;;;;;;0.10;0.10;;;8.50;99.90;;;;;;5059992;28;20181;-81
2021/10/23 01:25:21;;;;;;;0.20;0.20;;;8.60;99.90;;;;;;5060111;28;20552;-81
2021/10/23 01:27:47;;;;;;;0.27;0.27;;;8.60;99.90;;;;;;5060867;28;20212;-80
2021/10/23 01:30:13;;;;;;;0.07;0.07;;;8.50;99.90;;;;;;5062259;28;20703;-80
2021/10/23 01:32:39;;;;;;;0.10;0.10;;;8.60;99.90;;;;;;5056149;28;20221;-80
2021/10/23 01:35:07;;;;;;;0.10;0.10;;;8.60;99.90;;;;;;5055058;28;20192;-80
2021/10/23 01:37:42;;;;;;;0.27;0.27;;;8.50;99.90;;;;;;5052183;28;20227;-80
2021/10/23 01:40:11;;;;;;;0.50;0.50;;;8.50;99.90;;;;;;5041887;28;20170;-81
2021/10/23 01:42:37;;;;;;;0.10;0.10;;;8.50;99.90;;;;;;5053219;28;20600;-81
2021/10/23 01:45:05;;;;;;;0.00;0.00;;;8.60;99.90;;;;;;5059642;28;20182;-80
2021/10/23 01:47:31;;;;;;;0.03;0.03;;;8.70;99.90;;;;;;5048884;28;20208;-80
2021/10/23 01:49:56;;;;;;;0.20;0.13;;;8.70;99.90;;;;;;5058478;28;20213;-80
2021/10/23 01:52:22;;;;;;;0.10;0.10;;;8.60;99.90;;;;;;5053565;28;20652;-81
2021/10/23 01:54:48;;;;;;;0.10;0.10;;;8.60;99.90;;;;;;5051870;28;20213;-81
2021/10/23 01:57:14;;;;;;;0.23;0.23;;;8.60;99.90;;;;;;5066116;28;20209;-81
2021/10/23 01:59:40;;;;;;;0.07;0.07;;;8.70;99.90;;;;;;5062744;28;20225;-80
2021/10/23 02:02:05;;;;;;;0.10;0.10;;;8.80;99.90;;;;;;5060939;28;20607;-80
2021/10/23 02:04:31;;;;;;;0.00;0.00;;;8.90;99.90;;;;;;5057884;28;20177;-80
2021/10/23 02:06:56;;;;;;;0.50;0.50;;;8.90;99.90;;;;;;5065450;28;20216;-81
2021/10/23 02:09:22;;;;;;;0.20;0.20;;;9.00;99.90;;;;;;5065800;28;20565;-81
2021/10/23 02:11:48;;;;;;;0.27;0.20;;;9.00;99.90;;;;;;5060458;28;20240;-81
2021/10/23 02:14:13;;;;;;;0.60;0.60;;;9.00;99.90;;;;;;5052031;28;20229;-81
2021/10/23 02:16:39;;;;;;;0.20;0.20;;;9.00;99.90;;;;;;5050858;28;20279;-80
2021/10/23 02:19:05;;;;;;;0.10;0.10;;;8.90;99.90;;;;;;5069114;28;20179;-81
2021/10/23 02:21:30;;;;;;;0.10;0.10;;;8.90;99.90;;;;;;5059451;28;20212;-81
2021/10/23 02:23:56;;;;;;;0.10;0.10;;;8.90;99.90;;;;;;5068203;28;20201;-80
2021/10/23 02:26:21;;;;;;;0.00;0.00;;;9.00;99.90;;;;;;5059757;28;20578;-80
2021/10/23 02:28:47;;;;;;;0.10;0.10;;;9.10;99.90;;;;;;5066638;28;20242;-80
2021/10/23 02:31:13;;;;;;;0.10;0.10;;;9.10;99.90;;;;;;5062984;28;20600;-80
2021/10/23 02:33:38;;;;;;;0.10;0.10;;;9.20;99.90;;;;;;5063132;28;20180;-81
2021/10/23 02:36:04;;;;;;;0.00;0.00;;;8.80;99.90;;;;;;5061682;28;20210;-80
2021/10/23 02:38:30;;;;;;;0.10;0.10;;;8.60;99.90;;;;;;5065583;28;20199;-80
2021/10/23 02:40:59;;;;;;;0.23;0.23;;;8.70;99.90;;;;;;5063029;28;20178;-81
2021/10/23 02:43:25;;;;;;;0.27;0.27;;;8.70;99.90;;;;;;5062793;28;20646;-81
2021/10/23 02:45:51;;;;;;;0.10;0.10;;;8.80;99.90;;;;;;5062215;28;20179;-81
2021/10/23 02:48:17;;;;;;;0.17;0.17;;;8.90;99.90;;;;;;5064884;28;20194;-80
2021/10/23 02:50:42;;;;;;;0.20;0.20;;;9.00;99.90;;;;;;5063715;28;20191;-80
2021/10/23 02:53:08;;;;;;;0.10;0.10;;;9.10;99.90;;;;;;5064938;28;20173;-82
2021/10/23 02:55:34;;;;;;;0.10;0.10;;;9.10;99.90;;;;;;5054154;28;20272;-80
2021/10/23 02:58:00;;;;;;;0.10;0.10;;;9.20;99.90;;;;;;5056244;28;20194;-80
2021/10/23 03:00:26;;;;;;;0.10;0.10;;;9.20;99.90;;;;;;5062393;28;20637;-81
2021/10/23 03:02:52;;;;;;;0.20;0.20;;;9.20;99.90;;;;;;5059400;28;20712;-81
2021/10/23 03:05:18;;;;;;;0.10;0.10;;;9.30;99.90;;;;;;5058151;28;20337;-80
2021/10/23 03:07:44;;;;;;;0.17;0.10;;;9.30;99.90;;;;;;5068296;28;20250;-80
2021/10/23 03:10:11;;;;;;;0.10;0.10;;;9.30;99.90;;;;;;5068894;28;20256;-81
2021/10/23 03:12:36;;;;;;;0.10;0.10;;;9.20;99.90;;;;;;5064908;28;20193;-81
2021/10/23 03:15:03;;;;;;;0.10;0.10;;;9.20;99.90;;;;;;5062650;28;20547;-81
2021/10/23 03:17:29;;;;;;;0.53;0.50;;;9.30;99.90;;;;;;5065106;28;20256;-80
2021/10/23 03:19:56;;;;;;;0.10;0.10;;;9.20;99.90;;;;;;5062314;28;20631;-80
2021/10/23 03:22:23;;;;;;;0.10;0.10;;;9.20;99.90;;;;;;5042409;28;20181;-80
2021/10/23 03:24:48;;;;;;;0.07;0.07;;;9.10;99.90;;;;;;5064831;28;20184;-80
2021/10/23 03:27:14;;;;;;;0.10;0.10;;;9.00;99.90;;;;;;5065238;28;20207;-81
2021/10/23 03:29:40;;;;;;;0.10;0.10;;;9.00;99.90;;;;;;5064817;28;20196;-82
2021/10/23 03:32:05;;;;;;;0.10;0.10;;;9.00;99.90;;;;;;5063297;28;20174;-82
2021/10/23 03:34:31;;;;;;;0.10;0.10;;;9.00;99.90;;;;;;5061979;28;20660;-81
2021/10/23 03:36:57;;;;;;;0.60;0.20;;;8.90;99.90;;;;;;5066032;28;22067;-81
2021/10/23 03:39:22;;;;;;;0.20;0.20;;;8.90;99.90;;;;;;5055047;28;20178;-81
2021/10/23 03:41:48;;;;;;;0.23;0.23;;;8.80;99.90;;;;;;5049045;28;20183;-80
2021/10/23 03:44:13;;;;;;;0.10;0.10;;;8.60;99.90;;;;;;5063935;28;20165;-81
2021/10/23 03:46:39;;;;;;;0.10;0.10;;;8.40;99.90;;;;;;5063507;28;20231;-81
2021/10/23 03:49:05;;;;;;;0.40;0.27;;;8.40;99.90;;;;;;5064108;28;20200;-80
2021/10/23 03:51:31;;;;;;;0.10;0.10;;;8.30;99.90;;;;;;5064156;28;20185;-80
2021/10/23 03:53:56;;;;;;;0.10;0.10;;;8.30;99.90;;;;;;5061219;28;20185;-80
2021/10/23 03:56:22;;;;;;;0.10;0.10;;;8.40;99.90;;;;;;5050784;28;20221;-81
2021/10/23 03:58:48;;;;;;;0.10;0.10;;;8.40;99.90;;;;;;5056191;28;20233;-80
2021/10/23 04:01:14;;;;;;;0.10;0.10;;;8.30;99.90;;;;;;5040904;28;20635;-81
2021/10/23 04:03:40;;;;;;;0.30;0.17;;;8.20;99.90;;;;;;5058238;28;20277;-80
2021/10/23 04:06:05;;;;;;;0.17;0.17;;;8.00;99.90;;;;;;5062037;28;20265;-80
2021/10/23 04:08:31;;;;;;;0.17;0.17;;;7.80;99.90;;;;;;5052017;28;20213;-81
2021/10/23 04:10:57;;;;;;;0.10;0.10;;;7.70;99.90;;;;;;5064284;28;20185;-80
2021/10/23 04:13:22;;;;;;;0.10;0.10;;;7.80;99.90;;;;;;5060043;28;20242;-81
2021/10/23 04:15:49;;;;;;;0.53;0.50;;;7.80;99.90;;;;;;5065406;28;20556;-80
2021/10/23 04:18:15;;;;;;;0.20;0.13;;;7.90;99.90;;;;;;5058326;28;20227;-81
2021/10/23 04:20:40;;;;;;;0.10;0.10;;;7.90;99.90;;;;;;5066242;28;20260;-80
2021/10/23 04:23:06;;;;;;;0.30;0.30;;;8.00;99.90;;;;;;5057338;28;20188;-81
2021/10/23 04:25:32;;;;;;;0.10;0.10;;;7.90;99.90;;;;;;5053342;28;20648;-80
2021/10/23 04:27:58;;;;;;;0.10;0.10;;;8.00;99.90;;;;;;5063621;28;20216;-80
2021/10/23 04:30:23;;;;;;;0.10;0.10;;;8.10;99.90;;;;;;5062983;28;20201;-80
2021/10/23 04:32:49;;;;;;;0.13;0.13;;;8.10;99.90;;;;;;5058420;28;20186;-80
2021/10/23 04:35:14;;;;;;;0.30;0.20;;;8.10;99.90;;;;;;5052748;28;20260;-80
2021/10/23 04:37:40;;;;;;;0.10;0.10;;;8.20;99.90;;;;;;5062553;28;20252;-80
2021/10/23 04:40:09;;;;;;;0.20;0.17;;;8.30;99.90;;;;;;5062591;28;20201;-80
2021/10/23 04:42:34;;;;;;;0.20;0.20;;;8.30;99.90;;;;;;5061147;28;20231;-80
2021/10/23 04:45:00;;;;;;;0.83;0.20;;;8.30;99.90;;;;;;5066573;28;20183;-80
2021/10/23 04:47:25;;;;;;;0.10;0.10;;;8.30;99.90;;;;;;5067390;28;20213;-80
2021/10/23 04:49:51;;;;;;;0.10;0.10;;;8.30;99.90;;;;;;5060797;28;20178;-80
2021/10/23 04:52:16;;;;;;;0.10;0.10;;;8.20;99.90;;;;;;5068199;28;20801;-81
2021/10/23 04:54:42;;;;;;;0.10;0.10;;;8.10;99.90;;;;;;5059760;28;20191;-81
2021/10/23 04:57:08;;;;;;;0.20;0.17;;;7.90;99.90;;;;;;5059586;28;20242;-81
2021/10/23 04:59:33;;;;;;;1.00;0.40;;;7.70;99.90;;;;;;5058292;28;20184;-82
2021/10/23 05:01:59;;;;;;;0.10;0.10;;;7.50;99.90;;;;;;5051132;28;20177;-80
2021/10/23 05:04:24;;;;;;;0.10;0.10;;;7.50;99.90;;;;;;5061587;28;20265;-80
2021/10/23 05:06:50;;;;;;;0.00;0.00;;;7.40;99.90;;;;;;5068358;28;20189;-80
2021/10/23 05:09:16;;;;;;;0.20;0.20;;;7.30;99.90;;;;;;5058367;28;20747;-81
2021/10/23 05:11:41;;;;;;;0.53;0.30;;;7.40;99.90;;;;;;5058074;28;20626;-81
2021/10/23 05:14:07;;;;;;;0.10;0.10;;;7.30;99.90;;;;;;5063190;28;20182;-80
2021/10/23 05:16:32;;;;;;;0.10;0.10;;;7.30;99.90;;;;;;5058780;28;20207;-80
2021/10/23 05:18:58;;;;;;;0.10;0.10;;;7.10;99.90;;;;;;5068685;28;20206;-81
2021/10/23 05:21:23;;;;;;;0.10;0.10;;;7.00;99.90;;;;;;5059646;28;20640;-80
2021/10/23 05:23:52;;;;;;;0.40;0.20;;;7.00;99.90;;;;;;5066860;28;20211;-80
2021/10/23 05:26:17;;;;;;;0.00;0.00;;;7.10;99.90;;;;;;5063516;28;20631;-80
2021/10/23 05:28:43;;;;;;;0.30;0.30;;;7.10;99.90;;;;;;5061417;28;20229;-80
2021/10/23 05:31:09;;;;;;;0.40;0.40;;;7.10;99.90;;;;;;5059007;28;20220;-80
2021/10/23 05:33:34;;;;;;;0.30;0.30;;;7.20;99.90;;;;;;5065871;28;20188;-82
2021/10/23 05:36:00;;;;;;;0.10;0.10;;;7.10;99.90;;;;;;5064225;28;20215;-82
2021/10/23 05:38:25;;;;;;;0.10;0.10;;;7.20;99.90;;;;;;5065800;28;20734;-82
2021/10/23 05:40:51;;;;;;;0.10;0.10;;;7.20;99.90;;;;;;5070651;28;20185;-83
2021/10/23 05:43:17;;;;;;;0.10;0.10;;;7.10;99.90;;;;;;5059576;28;20189;-82
2021/10/23 05:45:42;;;;;;;0.10;0.10;;;7.10;99.90;;;;;;5069093;28;20623;-82
2021/10/23 05:48:08;;;;;;;3.30;1.17;;;7.00;99.90;;;;;;5060825;28;20193;-83
2021/10/23 05:50:34;;;;;;;0.47;0.40;;;6.90;99.90;;;;;;5056510;28;20175;-82
2021/10/23 05:53:00;;;;;;;0.10;0.10;;;7.00;99.90;;;;;;5067103;28;20204;-81
2021/10/23 05:55:25;;;;;;;0.10;0.10;;;6.90;99.90;;;;;;5061004;28;20181;-81
2021/10/23 05:57:51;;;;;;;0.30;0.30;;;6.90;99.90;;;;;;5064771;28;20216;-80
2021/10/23 06:00:17;;;;;;;0.33;0.27;;;6.90;99.90;;;;;;5042300;28;20186;-80
2021/10/23 06:02:44;;;;;;;0.17;0.17;;;6.90;99.90;;;;;;5046845;28;20190;-81
2021/10/23 06:05:10;;;;;;;0.40;0.40;;;6.80;99.90;;;;;;5048900;28;20554;-81
2021/10/23 06:07:41;;;;;;;0.10;0.10;;;6.80;99.90;;;;;;5058719;28;20705;-80
2021/10/23 06:10:09;;;;;;;0.30;0.30;;;6.80;99.90;;;;;;5044051;28;20170;-81
2021/10/23 06:12:36;;;;;;;0.20;0.20;;;6.80;99.90;;;;;;5082233;28;20197;-81
2021/10/23 06:15:03;;;;;;;0.87;0.33;;;6.80;99.90;;;;;;5059267;28;20871;-81
2021/10/23 06:17:29;;;;;;;0.10;0.10;;;6.80;99.90;;;;;;5046676;28;21231;-81
2021/10/23 06:19:54;;;;;;;0.00;0.00;;;6.80;99.90;;;;;;5053700;28;20180;-80
2021/10/23 06:22:20;;;;;;;0.10;0.10;;;6.90;99.90;;;;;;5049441;28;20232;-80
2021/10/23 06:24:46;;;;;;;0.10;0.10;;;7.00;99.90;;;;;;5058788;28;20209;-81
2021/10/23 06:27:11;;;;;;;0.10;0.10;;;6.90;99.90;;;;;;5071311;28;20219;-82
2021/10/23 06:29:37;;;;;;;0.30;0.30;;;7.00;99.90;;;;;;5055668;28;20218;-80
2021/10/23 06:32:04;;;;;;;0.10;0.10;;;7.10;99.90;;;;;;5040351;28;20666;-81
2021/10/23 06:34:29;;;;;;;0.23;0.20;;;7.30;99.90;;;;;;5043317;28;20252;-81
2021/10/23 06:36:55;;;;;;;0.10;0.10;;;7.40;99.90;;;;;;5047153;28;20682;-81
2021/10/23 06:39:21;;;;;;;0.10;0.10;;;7.60;99.90;;;;;;5051939;28;20272;-81
2021/10/23 06:41:47;;;;;;;0.10;0.10;;;7.50;99.90;;;;;;5046703;28;20209;-81
2021/10/23 06:44:12;;;;;;;0.53;0.43;;;7.40;99.90;;;;;;5047031;28;20204;-81
2021/10/23 06:46:39;;;;;;;0.10;0.10;;;7.70;99.90;;;;;;5067491;28;20349;-81
2021/10/23 06:49:07;;;;;;;0.20;0.20;;;7.80;99.90;;;;;;5042534;28;20196;-81
2021/10/23 06:51:33;;;;;;;0.10;0.10;;;7.50;99.90;;;;;;5055215;28;20193;-81
2021/10/23 06:54:00;;;;;;;0.30;0.30;;;7.50;99.90;;;;;;5041129;28;20278;-81
2021/10/23 06:56:27;;;;;;;0.20;0.10;;;7.50;99.90;;;;;;5060128;28;20258;-81
2021/10/23 06:58:53;;;;;;;0.10;0.10;;;7.80;99.90;;;;;;5062900;28;20241;-81
2021/10/23 07:01:20;;;;;;;2.97;0.13;;;7.80;99.90;;;;;;5059407;28;20228;-80
2021/10/23 07:03:45;;;;;;;0.20;0.20;;;7.90;99.90;;;;;;5060137;28;20184;-81
2021/10/23 07:06:11;;;;;;;0.00;0.00;;;8.20;99.90;;;;;;5055117;28;20608;-80
2021/10/23 07:08:37;;;;;;;0.10;0.10;;;8.40;99.90;;;;;;5043590;28;20296;-81
2021/10/23 07:11:03;;;;;;;0.30;0.30;;;8.60;99.90;;;;;;5058132;28;20230;-82
2021/10/23 07:13:28;;;;;;;0.30;0.30;;;8.60;99.90;;;;;;5048398;28;20189;-81
2021/10/23 07:15:54;;;;;;;0.10;0.10;;;8.70;99.90;;;;;;5059778;28;20225;-80
2021/10/23 07:18:19;;;;;;;0.83;0.83;;;8.60;99.90;;;;;;5054213;28;20574;-80
2021/10/23 07:20:45;;;;;;;0.30;0.30;;;8.40;99.90;;;;;;5070402;28;20186;-80
2021/10/23 07:23:11;;;;;;;0.13;0.07;;;8.40;99.90;;;;;;5067758;28;20173;-81
2021/10/23 07:25:37;;;;;;;0.40;0.33;;;8.70;99.90;;;;;;5065632;28;20182;-80
2021/10/23 07:28:02;;;;;;;0.10;0.10;;;9.00;99.90;;;;;;5063545;28;20213;-80
2021/10/23 07:30:28;;;;;;;0.20;0.20;;;9.10;99.90;;;;;;5066414;28;20684;-80
2021/10/23 07:32:54;;;;;;;0.20;0.20;;;9.20;99.90;;;;;;5064096;28;20189;-80
2021/10/23 07:35:19;;;;;;;0.07;0.07;;;9.20;99.90;;;;;;5066672;28;20188;-80
2021/10/23 07:37:45;;;;;;;0.10;0.10;;;9.40;99.90;;;;;;5066314;28;20213;-81
2021/10/23 07:40:13;;;;;;;0.10;0.10;;;9.60;99.90;;;;;;5065879;28;20177;-80
2021/10/23 07:42:40;;;;;;;0.33;0.27;;;9.70;99.90;;;;;;5061635;28;20664;-80
2021/10/23 07:45:09;;;;;;;0.10;0.10;;;9.90;99.90;;;;;;5073112;28;20187;-80
2021/10/23 07:47:38;;;;;;;0.30;0.30;;;10.00;99.90;;;;;;5061551;28;20581;-80
2021/10/23 07:50:08;;;;;;;0.30;0.30;;;10.00;99.90;;;;;;5066222;28;20183;-81
2021/10/23 07:52:35;;;;;;;0.10;0.10;;;10.10;99.90;;;;;;5060744;28;20192;-80
2021/10/23 07:55:02;;;;;;;0.07;0.07;;;10.10;99.90;;;;;;5045476;28;20249;-80
2021/10/23 07:57:28;;;;;;;0.10;0.10;;;10.20;99.90;;;;;;5056780;28;20255;-80
2021/10/23 07:59:54;;;;;;;0.20;0.20;;;10.10;99.90;;;;;;5057896;28;20190;-80
2021/10/23 08:02:19;;;;;;;0.20;0.20;;;10.30;99.90;;;;;;5065601;28;20182;-81
2021/10/23 08:04:45;;;;;;;0.37;0.37;;;9.90;99.90;;;;;;5063883;28;20725;-81
2021/10/23 08:07:11;;;;;;;0.20;0.20;;;10.00;99.90;;;;;;5060394;28;20197;-80
2021/10/23 08:09:38;;;;;;;0.20;0.20;;;10.00;99.90;;;;;;5057534;28;20242;-81
2021/10/23 08:12:04;;;;;;;0.10;0.10;;;10.20;99.90;;;;;;5063093;28;20181;-80
2021/10/23 08:14:34;;;;;;;0.20;0.20;;;10.20;99.90;;;;;;5052743;28;20627;-80
2021/10/23 08:16:59;;;;;;;0.40;0.40;;;10.00;99.90;;;;;;5053588;28;20589;-80
2021/10/23 08:19:25;;;;;;;0.13;0.13;;;9.90;99.90;;;;;;5055716;28;20177;-81
2021/10/23 08:21:51;;;;;;;0.20;0.20;;;10.10;99.90;;;;;;5063080;28;20180;-80
2021/10/23 08:24:17;;;;;;;0.10;0.10;;;10.40;99.90;;;;;;5056802;28;20816;-80
2021/10/23 08:26:44;;;;;;;2.13;0.20;;;10.60;99.90;;;;;;5056533;28;20220;-80
2021/10/23 08:29:12;;;;;;;0.70;0.23;;;10.80;99.90;;;;;;5064558;28;20235;-80
2021/10/23 08:31:37;;;;;;;0.20;0.20;;;10.90;99.90;;;;;;5058984;28;20189;-80
2021/10/23 08:34:03;;;;;;;0.13;0.13;;;10.90;99.90;;;;;;5061965;28;20195;-80
2021/10/23 08:36:29;;;;;;;0.10;0.10;;;11.00;99.90;;;;;;5064781;28;20266;-81
2021/10/23 08:38:56;;;;;;;0.47;0.47;;;11.20;99.90;;;;;;5056510;28;20193;-80
2021/10/23 08:41:24;;;;;;;0.10;0.10;;;11.30;99.90;;;;;;5048312;28;20208;-80
2021/10/23 08:43:50;;;;;;;0.10;0.10;;;11.40;99.90;;;;;;5065906;28;20189;-80
2021/10/23 08:46:23;;;;;;;0.20;0.20;;;11.00;99.90;;;;;;5063995;28;20188;-80
2021/10/23 08:48:51;;;;;;;0.20;0.20;;;10.80;99.90;;;;;;5062650;28;20203;-81
2021/10/23 08:51:17;;;;;;;0.10;0.10;;;11.00;99.90;;;;;;5056815;28;20645;-80
2021/10/23 08:53:43;;;;;;;0.60;0.30;;;11.30;99.90;;;;;;5050647;28;20648;-80
2021/10/23 08:56:09;;;;;;;0.20;0.20;;;11.50;99.90;;;;;;5063285;28;20262;-82
2021/10/23 08:58:36;;;;;;;0.20;0.20;;;11.60;99.90;;;;;;5056087;28;20201;-82
2021/10/23 09:01:04;;;;;;;0.33;0.33;;;11.60;99.90;;;;;;5063286;28;20161;-82
2021/10/23 09:03:30;;;;;;;0.20;0.20;;;11.60;99.90;;;;;;5058097;28;20271;-82
2021/10/23 09:05:56;;;;;;;0.30;0.23;;;11.70;99.90;;;;;;5069543;28;20178;-82
2021/10/23 09:08:22;;;;;;;0.10;0.10;;;11.70;99.90;;;;;;5070774;28;20200;-81
2021/10/23 09:10:51;;;;;;;0.50;0.50;;;11.90;99.90;;;;;;5068651;28;20173;-82
2021/10/23 09:13:28;;;;;;;0.30;0.30;;;12.00;99.90;;;;;;5069967;28;20189;-82
2021/10/23 09:15:54;;;;;;;0.10;0.10;;;12.10;99.90;;;;;;5062199;28;20188;-82
2021/10/23 09:18:39;;;;;;;0.23;0.23;;;12.10;99.90;;;;;;5046317;28;20228;-81
2021/10/23 09:21:23;;;;;;;0.13;0.13;;;12.10;99.90;;;;;;5055663;28;20179;-81
2021/10/23 09:23:52;;;;;;;0.20;0.20;;;12.10;99.90;;;;;;5059825;28;20188;-81
2021/10/23 09:26:34;;;;;;;0.20;0.20;;;12.30;99.90;;;;;;5057569;28;20263;-82
2021/10/23 09:29:13;;;;;;;0.40;0.40;;;12.30;99.90;;;;;;5054915;28;20218;-82
2021/10/23 09:31:41;;;;;;;0.23;0.23;;;12.40;99.90;;;;;;5072167;28;20188;-81
2021/10/23 09:34:09;;;;;;;0.33;0.33;;;12.50;99.90;;;;;;5044799;28;20187;-82
2021/10/23 09:36:45;;;;;;;0.20;0.20;;;12.50;99.90;;;;;;5081801;28;20217;-81
2021/10/23 09:39:10;;;;;;;0.97;0.97;;;12.70;99.90;;;;;;5091685;28;20200;-80
2021/10/23 09:41:36;;;;;;;0.10;0.10;;;12.70;99.90;;;;;;5047787;28;20174;-81
2021/10/23 09:44:15;;;;;;;0.10;0.10;;;12.80;99.90;;;;;;5048863;28;20175;-81
2021/10/23 09:46:55;;;;;;;0.40;0.40;;;12.80;99.90;;;;;;5067973;28;20187;-81
2021/10/23 09:49:22;;;;;;;0.10;0.10;;;12.90;99.90;;;;;;5064061;28;20188;-81
2021/10/23 09:52:00;;;;;;;0.30;0.30;;;12.90;99.90;;;;;;5069208;28;20189;-81
2021/10/23 09:54:26;;;;;;;0.30;0.30;;;12.90;99.90;;;;;;5059274;28;20227;-81
2021/10/23 09:56:51;;;;;;;0.60;0.60;;;12.90;99.90;;;;;;5068341;28;20231;-80
2021/10/23 09:59:28;;;;;;;0.13;0.13;;;13.10;99.90;;;;;;5067379;28;20184;-81
2021/10/23 10:01:57;;;;;;;0.80;0.30;;;13.20;99.90;;;;;;5063669;28;20528;-81
2021/10/23 10:04:24;;;;;;;0.30;0.30;;;13.30;99.90;;;;;;5064513;28;20195;-81
2021/10/23 10:06:50;;;;;;;0.20;0.20;;;13.40;99.90;;;;;;5051137;28;20942;-81
2021/10/23 10:09:18;;;;;;;0.13;0.13;;;13.40;99.90;;;;;;5046395;28;20186;-81
2021/10/23 10:11:47;;;;;;;0.10;0.10;;;13.40;99.90;;;;;;5063485;28;20191;-83
2021/10/23 10:14:13;;;;;;;0.13;0.13;;;13.40;99.90;;;;;;5052225;28;20314;-80
2021/10/23 10:16:45;;;;;;;0.10;0.10;;;13.40;99.90;;;;;;5068231;28;20229;-81
2021/10/23 10:19:15;;;;;;;0.20;0.20;;;13.30;99.90;;;;;;5057041;28;20207;-81
2021/10/23 10:21:42;;;;;;;0.30;0.30;;;13.20;99.90;;;;;;5083776;28;20312;-81
2021/10/23 10:24:23;;;;;;;0.10;0.10;;;13.40;99.90;;;;;;5068561;28;20233;-81
2021/10/23 10:27:09;;;;;;;0.20;0.20;;;13.20;99.90;;;;;;5051331;28;20253;-81
2021/10/23 10:29:44;;;;;;;0.70;0.43;;;12.40;99.90;;;;;;5051386;28;20205;-81
2021/10/23 10:38:26;;;;;;;0.10;0.10;;;11.60;99.90;;;;;;5065533;28;20771;-80
2021/10/23 10:40:58;;;;;;;0.10;0.10;;;12.00;99.90;;;;;;5041295;28;20643;-81
2021/10/23 10:43:25;;;;;;;0.50;0.40;;;12.40;99.90;;;;;;5045904;28;20182;-81
2021/10/23 10:45:53;;;;;;;6.70;0.40;;;12.30;99.90;;;;;;5050737;28;20181;-81
2021/10/23 10:48:25;;;;;;;0.93;0.57;;;12.70;99.90;;;;;;5057858;28;20665;-81
2021/10/23 10:50:55;;;;;;;0.20;0.20;;;12.40;99.90;;;;;;5053851;28;20210;-81
2021/10/23 10:53:22;;;;;;;1.00;0.20;;;12.50;99.90;;;;;;5060397;28;20550;-81
2021/10/23 10:55:48;;;;;;;0.10;0.10;;;13.00;99.90;;;;;;5060131;28;20199;-81
2021/10/23 10:58:15;;;;;;;0.43;0.43;;;13.30;99.90;;;;;;5048892;28;20211;-81
2021/10/23 11:00:48;;;;;;;0.73;0.50;;;12.80;99.90;;;;;;5051815;28;20245;-81
2021/10/23 11:03:37;;;;;;;0.33;0.33;;;12.20;99.90;;;;;;5044874;28;20192;-81
2021/10/23 11:06:34;;;;;;;0.10;0.10;;;12.20;99.90;;;;;;5048354;28;20183;-81
2021/10/23 11:09:09;;;;;;;0.10;0.10;;;12.10;99.90;;;;;;5049542;28;20246;-81
2021/10/23 11:11:50;;;;;;;0.10;0.10;;;12.20;99.90;;;;;;5050489;28;20191;-81
2021/10/23 11:14:21;;;;;;;2.67;0.93;;;12.60;99.90;;;;;;5051665;28;20189;-81
2021/10/23 11:16:56;;;;;;;0.10;0.10;;;12.60;99.90;;;;;;5049420;28;20203;-81
2021/10/23 11:19:51;;;;;;;0.27;0.27;;;13.10;99.90;;;;;;5056614;28;20172;-80
2021/10/23 11:22:22;;;;;;;0.20;0.20;;;12.80;99.90;;;;;;5049006;28;20220;-81
2021/10/23 11:25:06;;;;;;;0.10;0.10;;;12.70;99.90;;;;;;5051482;28;20201;-81
2021/10/23 11:27:50;;;;;;;2.07;0.63;;;13.10;99.90;;;;;;5042161;28;20208;-81
2021/10/23 11:30:33;;;;;;;0.20;0.20;;;12.70;99.90;;;;;;5058293;28;20196;-81
2021/10/23 11:33:06;;;;;;;1.20;0.30;;;12.70;99.90;;;;;;5052521;28;20188;-81
2021/10/23 11:35:54;;;;;;;0.13;0.13;;;12.70;99.90;;;;;;5041595;28;20258;-81
2021/10/23 11:38:22;;;;;;;0.50;0.50;;;13.10;99.90;;;;;;5052312;28;20219;-81
2021/10/23 11:40:53;;;;;;;0.20;0.20;;;12.90;99.90;;;;;;5059216;28;20614;-81
2021/10/23 11:43:19;;;;;;;0.10;0.10;;;13.30;99.90;;;;;;5050523;28;20184;-81
2021/10/23 11:45:46;;;;;;;0.40;0.40;;;13.50;99.90;;;;;;5052954;28;20890;-81
2021/10/23 11:48:13;;;;;;;0.20;0.20;;;13.30;99.90;;;;;;5057697;28;20193;-81
2021/10/23 11:50:44;;;;;;;0.20;0.20;;;13.40;99.90;;;;;;5061398;28;20288;-81
2021/10/23 11:53:13;;;;;;;0.77;0.20;;;13.60;99.90;;;;;;5056059;28;20177;-81
2021/10/23 11:55:41;;;;;;;4.60;0.40;;;13.80;99.90;;;;;;5055684;28;20236;-82
2021/10/23 11:58:09;;;;;;;0.10;0.10;;;13.60;99.90;;;;;;5055414;28;20248;-81
2021/10/23 12:00:38;;;;;;;0.30;0.30;;;14.00;99.90;;;;;;5051737;28;20185;-81
2021/10/23 12:03:06;;;;;;;0.20;0.20;;;14.60;99.90;;;;;;5065197;28;20179;-82
2021/10/23 12:05:43;;;;;;;0.20;0.20;;;14.10;99.90;;;;;;5065380;28;20549;-80
2021/10/23 12:08:18;;;;;;;0.10;0.10;;;14.20;99.90;;;;;;5052635;28;20569;-81
2021/10/23 12:11:06;;;;;;;0.20;0.20;;;14.50;99.90;;;;;;5059453;28;20190;-81
2021/10/23 12:13:51;;;;;;;0.30;0.30;;;14.10;99.90;;;;;;5052452;28;20174;-81
2021/10/23 12:16:32;;;;;;;0.10;0.10;;;14.00;99.90;;;;;;5052266;28;20259;-81
2021/10/23 12:19:24;;;;;;;0.27;0.27;;;13.80;99.90;;;;;;5065656;28;20203;-81
2021/10/23 12:22:08;;;;;;;0.20;0.20;;;13.80;99.90;;;;;;5062922;28;20268;-82
2021/10/23 12:24:33;;;;;;;0.40;0.40;;;13.60;99.90;;;;;;5053616;28;20584;-81
2021/10/23 12:27:00;;;;;;;0.60;0.60;;;13.40;99.90;;;;;;5044486;28;20189;-81
2021/10/23 12:29:37;;;;;;;0.53;0.47;;;13.50;99.90;;;;;;5055072;28;20674;-81
2021/10/23 12:32:05;;;;;;;0.93;0.93;;;13.70;99.90;;;;;;5046418;28;20193;-81
2021/10/23 12:34:52;;;;;;;0.27;0.27;;;13.80;99.90;;;;;;5054871;28;20230;-81
2021/10/23 12:37:27;;;;;;;0.47;0.47;;;13.70;99.90;;;;;;5050821;28;20730;-81
2021/10/23 12:40:20;;;;;;;0.17;0.17;;;13.50;99.90;;;;;;5060647;28;20253;-81
2021/10/23 12:43:18;;;;;;;1.10;0.50;;;13.20;99.90;;;;;;5052347;28;20178;-81
2021/10/23 12:45:53;;;;;;;0.23;0.20;;;13.50;99.90;;;;;;5059472;28;20258;-81
2021/10/23 12:48:20;;;;;;;0.10;0.10;;;13.10;99.90;;;;;;5064139;28;20209;-82
2021/10/23 12:50:51;;;;;;;0.10;0.10;;;12.90;99.90;;;;;;5060849;28;20705;-82
2021/10/23 12:53:17;;;;;;;0.10;0.10;;;12.60;99.90;;;;;;5059604;28;20554;-81
2021/10/23 12:55:43;;;;;;;0.10;0.10;;;12.50;99.90;;;;;;5053962;28;20219;-81
2021/10/23 12:58:09;;;;;;;0.10;0.10;;;12.70;99.90;;;;;;5065565;28;20217;-81
2021/10/23 13:00:39;;;;;;;0.30;0.30;;;12.80;99.90;;;;;;5041900;28;20193;-81
2021/10/23 13:03:04;;;;;;;0.40;0.40;;;12.70;99.90;;;;;;5061556;28;20176;-80